createdAt,value
2022-08-05T00:02:26.873Z,23.27
2022-08-05T00:04:55.943Z,23.20
2022-08-05T00:07:59.206Z,23.15
2022-08-05T00:10:10.401Z,23.07
2022-08-05T00:12:56.589Z,23.09
2022-08-05T00:15:54.894Z,23.04
2022-08-05T00:18:21.319Z,22.94
2022-08-05T00:20:49.865Z,22.88
2022-08-05T00:23:16.434Z,22.94
2022-08-05T00:25:46.171Z,23.09
2022-08-05T00:28:15.349Z,23.02
2022-08-05T00:30:47.633Z,23.09
2022-08-05T00:34:54.738Z,23.10
2022-08-05T00:36:16.473Z,23.31
2022-08-05T00:38:52.967Z,23.27
2022-08-05T00:41:52.097Z,23.20
2022-08-05T00:44:20.869Z,23.14
2022-08-05T00:46:53.975Z,23.02
2022-08-05T00:49:28.284Z,22.99
2022-08-05T00:51:59.658Z,23.00
2022-08-05T00:54:28.070Z,23.08
2022-08-05T00:56:56.547Z,22.96
2022-08-05T00:59:22.958Z,22.68
2022-08-05T01:01:49.472Z,22.74
2022-08-05T01:04:16.165Z,22.62
2022-08-05T01:06:48.823Z,22.53
2022-08-05T01:09:20.237Z,22.40
2022-08-05T01:11:49.686Z,22.44
2022-08-05T01:14:33.646Z,22.60
2022-08-05T01:17:05.335Z,22.50
2022-08-05T01:19:56.151Z,22.42
2022-08-05T01:22:47.967Z,22.19
2022-08-05T01:25:53.314Z,22.52
2022-08-05T01:28:33.124Z,22.52
2022-08-05T01:31:09.236Z,22.53
2022-08-05T01:33:42.284Z,22.62
2022-08-05T01:36:18.137Z,22.63
2022-08-05T01:38:49.852Z,22.72
2022-08-05T01:41:21.047Z,22.58
2022-08-05T01:43:51.175Z,22.67
2022-08-05T01:46:41.379Z,22.50
2022-08-05T01:49:22.907Z,22.44
2022-08-05T01:51:55.138Z,22.30
2022-08-05T01:54:25.733Z,22.13
2022-08-05T01:58:12.868Z,21.98
2022-08-05T01:59:48.241Z,21.80
2022-08-05T02:02:19.067Z,21.77
2022-08-05T02:04:56.802Z,21.77
2022-08-05T02:07:24.458Z,21.51
2022-08-05T02:09:56.933Z,21.59
2022-08-05T02:12:38.797Z,21.53
2022-08-05T02:15:15.572Z,21.54
2022-08-05T02:18:31.988Z,21.54
2022-08-05T02:20:58.899Z,21.63
2022-08-05T02:23:33.485Z,21.64
2022-08-05T02:26:02.789Z,21.84
2022-08-05T02:28:38.174Z,21.92
2022-08-05T02:31:14.712Z,22.41
2022-08-05T02:33:44.969Z,22.41
2022-08-05T02:36:17.912Z,22.59
2022-08-05T02:38:53.304Z,22.71
2022-08-05T02:41:23.139Z,22.67
2022-08-05T02:44:06.615Z,22.65
2022-08-05T02:46:53.286Z,22.70
2022-08-05T02:49:35.783Z,22.56
2022-08-05T02:52:07.603Z,22.53
2022-08-05T02:54:37.137Z,22.38
2022-08-05T02:57:09.818Z,22.41
2022-08-05T02:59:50.425Z,22.36
2022-08-05T03:02:24.361Z,22.25
2022-08-05T03:04:57.223Z,22.27
2022-08-05T03:07:48.476Z,22.05
2022-08-05T03:10:22.057Z,22.26
2022-08-05T03:12:52.067Z,22.24
2022-08-05T03:15:20.273Z,22.21
2022-08-05T03:17:46.724Z,22.06
2022-08-05T03:20:13.622Z,22.12
2022-08-05T03:22:44.125Z,22.18
2022-08-05T03:25:32.988Z,22.22
2022-08-05T03:28:07.013Z,22.32
2022-08-05T03:30:35.783Z,22.16
2022-08-05T03:33:04.405Z,22.11
2022-08-05T03:35:33.734Z,22.12
2022-08-05T03:38:01.267Z,22.11
2022-08-05T03:40:31.834Z,22.05
2022-08-05T03:42:59.374Z,22.04
2022-08-05T03:45:28.110Z,21.95
2022-08-05T03:47:56.887Z,22.04
2022-08-05T03:50:33.549Z,21.72
2022-08-05T03:55:07.137Z,21.16
2022-08-05T03:56:17.206Z,20.96
2022-08-05T03:58:59.819Z,21.18
2022-08-05T04:01:32.330Z,20.91
2022-08-05T04:04:09.751Z,20.86
2022-08-05T04:06:37.637Z,20.81
2022-08-05T04:09:08.389Z,20.76
2022-08-05T04:11:50.356Z,20.75
2022-08-05T04:14:19.650Z,20.76
2022-08-05T04:16:59.676Z,20.79
2022-08-05T04:19:28.006Z,20.74
2022-08-05T04:22:08.433Z,20.78
2022-08-05T04:24:44.409Z,20.79
2022-08-05T04:27:19.238Z,20.87
2022-08-05T04:29:45.672Z,20.78
2022-08-05T04:32:20.035Z,20.75
2022-08-05T04:34:57.721Z,20.78
2022-08-05T04:38:01.143Z,20.87
2022-08-05T04:40:11.275Z,21.04
2022-08-05T04:42:37.678Z,20.98
2022-08-05T04:45:08.509Z,20.95
2022-08-05T04:47:42.880Z,20.70
2022-08-05T04:50:14.098Z,20.73
2022-08-05T04:53:01.385Z,20.78
2022-08-05T04:56:00.080Z,20.89
2022-08-05T04:58:21.543Z,20.92
2022-08-05T05:00:50.666Z,21.07
2022-08-05T05:03:20.249Z,20.97
2022-08-05T05:06:39.069Z,21.00
2022-08-05T05:08:33.302Z,21.01
2022-08-05T05:10:59.968Z,21.12
2022-08-05T05:13:26.696Z,20.90
2022-08-05T05:16:05.955Z,21.05
2022-08-05T05:18:35.301Z,21.13
2022-08-05T05:21:03.627Z,21.33
2022-08-05T05:23:39.485Z,21.27
2022-08-05T05:26:18.405Z,21.13
2022-08-05T05:28:45.365Z,21.11
2022-08-05T05:31:12.017Z,21.09
2022-08-05T05:33:57.056Z,20.92
2022-08-05T05:36:25.266Z,20.88
2022-08-05T05:38:55.499Z,21.08
2022-08-05T05:41:22.002Z,21.11
2022-08-05T05:43:56.745Z,21.22
2022-08-05T05:46:25.194Z,21.20
2022-08-05T05:48:51.577Z,21.23
2022-08-05T05:51:24.176Z,21.03
2022-08-05T05:53:57.540Z,21.26
2022-08-05T05:56:31.353Z,21.29
2022-08-05T05:59:03.532Z,21.24
2022-08-05T06:01:37.761Z,21.06
2022-08-05T06:04:11.922Z,21.21
2022-08-05T06:06:47.267Z,21.32
2022-08-05T06:09:25.757Z,21.29
2022-08-05T06:11:59.404Z,21.01
2022-08-05T06:14:29.157Z,21.01
2022-08-05T06:16:56.843Z,21.38
2022-08-05T06:19:32.963Z,21.42
2022-08-05T06:22:00.774Z,21.48
2022-08-05T06:24:27.228Z,21.00
2022-08-05T06:26:56.129Z,20.86
2022-08-05T06:29:49.256Z,20.68
2022-08-05T06:32:20.972Z,20.63
2022-08-05T06:34:56.173Z,20.57
2022-08-05T06:37:56.818Z,20.50
2022-08-05T06:40:18.478Z,20.43
2022-08-05T06:42:52.207Z,20.62
2022-08-05T06:45:21.508Z,20.64
2022-08-05T06:48:36.459Z,20.70
2022-08-05T06:50:53.595Z,20.79
2022-08-05T06:53:22.609Z,20.88
2022-08-05T06:55:55.960Z,21.03
2022-08-05T06:58:29.805Z,20.95
2022-08-05T07:01:02.808Z,21.17
2022-08-05T07:03:32.751Z,21.18
2022-08-05T07:05:59.474Z,21.19
2022-08-05T07:08:25.977Z,21.26
2022-08-05T07:10:54.217Z,21.48
2022-08-05T07:13:58.304Z,21.47
2022-08-05T07:18:01.976Z,21.67
2022-08-05T07:22:27.692Z,21.66
2022-08-05T07:25:21.697Z,21.96
2022-08-05T07:27:57.362Z,22.12
2022-08-05T07:30:32.580Z,23.37
2022-08-05T07:36:40.932Z,23.34
2022-08-05T07:39:24.888Z,22.79
2022-08-05T07:42:08.645Z,23.79
2022-08-05T07:44:41.303Z,24.73
2022-08-05T07:47:08.041Z,24.55
2022-08-05T07:49:43.490Z,25.07
2022-08-05T07:52:21.407Z,25.14
2022-08-05T07:54:50.464Z,24.35
2022-08-05T07:57:41.929Z,25.42
2022-08-05T08:00:06.879Z,26.76
2022-08-05T08:03:14.084Z,27.14
2022-08-05T08:05:26.463Z,25.82
2022-08-05T08:07:59.591Z,25.46
2022-08-05T08:10:26.875Z,26.42
2022-08-05T08:12:53.362Z,28.50
2022-08-05T08:16:33.537Z,28.45
2022-08-05T08:18:13.850Z,26.53
2022-08-05T08:21:00.568Z,25.80
2022-08-05T08:24:01.160Z,25.63
2022-08-05T08:26:13.704Z,25.83
2022-08-05T08:28:59.574Z,25.36
2022-08-05T08:31:27.609Z,25.10
2022-08-05T08:33:59.403Z,24.91
2022-08-05T08:36:37.535Z,26.09
2022-08-05T08:39:15.812Z,26.20
2022-08-05T08:41:52.361Z,25.77
2022-08-05T08:45:24.058Z,25.20
2022-08-05T08:47:46.970Z,25.47
2022-08-05T08:50:30.987Z,25.36
2022-08-05T08:53:00.716Z,25.63
2022-08-05T08:56:03.116Z,26.27
2022-08-05T08:58:15.627Z,27.10
2022-08-05T09:00:42.874Z,27.57
2022-08-05T09:03:12.124Z,29.22
2022-08-05T09:06:08.675Z,27.80
2022-08-05T09:08:30.263Z,27.65
2022-08-05T09:10:57.515Z,28.62
2022-08-05T09:13:31.928Z,27.84
2022-08-05T09:16:15.825Z,26.27
2022-08-05T09:18:44.468Z,26.28
2022-08-05T09:21:11.782Z,26.83
2022-08-05T09:24:02.537Z,27.90
2022-08-05T09:26:30.223Z,29.33
2022-08-05T09:29:08.877Z,28.25
2022-08-05T09:32:39.049Z,26.79
2022-08-05T09:34:22.311Z,27.78
2022-08-05T09:36:55.129Z,28.34
2022-08-05T09:39:27.651Z,28.55
2022-08-05T09:42:08.499Z,28.67
2022-08-05T09:44:40.350Z,27.90
2022-08-05T09:47:10.403Z,27.98
2022-08-05T09:50:01.450Z,27.36
2022-08-05T09:52:36.194Z,27.34
2022-08-05T09:55:57.298Z,27.42
2022-08-05T09:57:59.974Z,27.65
2022-08-05T10:00:27.662Z,27.53
2022-08-05T10:02:58.474Z,27.79
2022-08-05T10:05:27.746Z,28.58
2022-08-05T10:08:36.660Z,28.38
2022-08-05T10:10:44.419Z,28.23
2022-08-05T10:13:11.970Z,28.22
2022-08-05T10:15:41.765Z,29.51
2022-08-05T10:18:20.326Z,29.87
2022-08-05T10:20:52.675Z,29.42
2022-08-05T10:23:55.465Z,27.90
2022-08-05T10:26:14.254Z,28.31
2022-08-05T10:28:43.782Z,28.30
2022-08-05T10:32:48.605Z,27.62
2022-08-05T10:34:00.109Z,27.79
2022-08-05T10:36:28.066Z,28.02
2022-08-05T10:39:10.098Z,27.58
2022-08-05T10:42:00.874Z,27.28
2022-08-05T10:44:29.368Z,28.39
2022-08-05T10:46:56.736Z,28.32
2022-08-05T10:49:26.731Z,28.60
2022-08-05T10:52:00.363Z,27.93
2022-08-05T10:55:02.060Z,27.33
2022-08-05T10:57:33.921Z,28.38
2022-08-05T11:00:20.855Z,27.99
2022-08-05T11:03:23.193Z,28.07
2022-08-05T11:06:17.792Z,28.06
2022-08-05T11:09:16.797Z,27.66
2022-08-05T11:11:53.290Z,27.79
2022-08-05T11:14:57.809Z,28.00
2022-08-05T11:17:57.639Z,28.32
2022-08-05T11:20:47.479Z,28.62
2022-08-05T11:24:04.472Z,29.08
2022-08-05T11:26:40.437Z,28.74
2022-08-05T11:29:37.440Z,28.71
2022-08-05T11:32:26.590Z,27.69
2022-08-05T11:34:54.541Z,28.23
2022-08-05T11:38:31.029Z,28.08
2022-08-05T11:41:13.844Z,28.03
2022-08-05T11:44:05.379Z,28.62
2022-08-05T11:47:10.537Z,29.24
2022-08-05T11:49:34.118Z,30.58
2022-08-05T11:52:01.585Z,28.95
2022-08-05T11:54:40.444Z,29.95
2022-08-05T11:57:24.273Z,30.03
2022-08-05T11:59:54.505Z,28.79
2022-08-05T12:02:33.033Z,28.93
2022-08-05T12:05:07.422Z,29.76
2022-08-05T12:08:08.180Z,28.67
2022-08-05T12:10:43.110Z,29.45
2022-08-05T12:13:16.028Z,30.02
2022-08-05T12:15:45.144Z,29.95
2022-08-05T12:18:20.704Z,30.42
2022-08-05T12:20:51.047Z,31.16
2022-08-05T12:23:17.868Z,30.14
2022-08-05T12:25:53.813Z,30.80
2022-08-05T12:28:40.687Z,29.55
2022-08-05T12:31:10.735Z,30.75
2022-08-05T12:33:50.642Z,30.47
2022-08-05T12:36:19.554Z,30.78
2022-08-05T12:38:46.067Z,29.59
2022-08-05T12:41:16.600Z,30.63
2022-08-05T12:43:53.762Z,29.79
2022-08-05T12:46:47.116Z,29.48
2022-08-05T12:49:19.114Z,28.40
2022-08-05T12:52:13.826Z,28.80
2022-08-05T12:54:55.191Z,29.39
2022-08-05T12:57:23.275Z,29.14
2022-08-05T13:01:58.098Z,28.35
2022-08-05T13:02:40.089Z,28.75
2022-08-05T13:05:08.200Z,27.91
2022-08-05T13:08:01.012Z,28.64
2022-08-05T13:10:33.145Z,29.04
2022-08-05T13:12:59.762Z,29.25
2022-08-05T13:15:41.736Z,29.00
2022-08-05T13:18:19.724Z,29.47
2022-08-05T13:20:49.803Z,29.11
2022-08-05T13:23:18.281Z,28.69
2022-08-05T13:25:52.437Z,28.74
2022-08-05T13:28:26.883Z,28.54
2022-08-05T13:30:57.245Z,28.62
2022-08-05T13:34:22.503Z,28.74
2022-08-05T13:36:14.479Z,28.06
2022-08-05T13:38:42.625Z,27.38
2022-08-05T13:41:13.563Z,27.82
2022-08-05T13:50:16.251Z,28.02
2022-08-05T13:52:44.100Z,28.09
2022-08-05T13:55:10.847Z,28.16
2022-08-05T13:57:48.608Z,27.29
2022-08-05T14:00:18.482Z,26.48
2022-08-05T14:02:54.195Z,26.13
2022-08-05T14:05:29.298Z,26.14
2022-08-05T14:08:11.346Z,26.06
2022-08-05T14:10:47.546Z,25.90
2022-08-05T14:13:15.413Z,25.54
2022-08-05T14:16:09.326Z,25.44
2022-08-05T14:18:28.585Z,25.52
2022-08-05T14:20:55.405Z,25.69
2022-08-05T14:23:24.883Z,25.26
2022-08-05T14:25:58.941Z,24.87
2022-08-05T14:28:29.167Z,24.76
2022-08-05T14:30:57.114Z,24.74
2022-08-05T14:33:23.623Z,24.67
2022-08-05T14:35:51.736Z,24.29
2022-08-05T14:38:27.722Z,24.36
2022-08-05T14:41:00.116Z,24.08
2022-08-05T14:43:57.342Z,23.57
2022-08-05T14:46:13.081Z,23.47
2022-08-05T14:48:39.558Z,23.52
2022-08-05T14:51:06.525Z,23.48
2022-08-05T14:53:44.307Z,23.32
2022-08-05T14:56:11.820Z,23.11
2022-08-05T14:58:39.798Z,22.83
2022-08-05T15:01:16.265Z,23.14
2022-08-05T15:03:43.584Z,23.28
2022-08-05T15:06:15.942Z,22.76
2022-08-05T15:09:01.187Z,22.69
2022-08-05T15:11:51.291Z,22.24
2022-08-05T15:14:20.168Z,22.43
2022-08-05T15:17:03.729Z,22.30
2022-08-05T15:19:30.743Z,22.05
2022-08-05T15:22:00.105Z,21.61
2022-08-05T15:24:28.049Z,21.94
2022-08-05T15:26:55.978Z,21.79
2022-08-05T15:29:23.561Z,21.54
2022-08-05T15:31:56.535Z,21.49
2022-08-05T15:34:33.222Z,21.33
2022-08-05T15:37:06.210Z,21.33
2022-08-05T15:40:58.256Z,21.50
2022-08-05T15:42:53.662Z,21.40
2022-08-05T15:45:07.823Z,21.55
2022-08-05T15:47:36.416Z,21.70
2022-08-05T15:50:03.926Z,21.51
2022-08-05T15:52:52.642Z,21.61
2022-08-05T15:55:19.291Z,21.16
2022-08-05T15:57:51.316Z,21.01
2022-08-05T16:00:32.542Z,20.98
2022-08-05T16:03:05.581Z,21.03
2022-08-05T16:05:32.347Z,20.96
2022-08-05T16:07:59.073Z,21.03
2022-08-05T16:10:27.005Z,21.36
2022-08-05T16:12:55.875Z,21.32
2022-08-05T16:15:23.677Z,21.51
2022-08-05T16:17:57.894Z,21.28
2022-08-05T16:20:25.317Z,21.57
2022-08-05T16:22:51.792Z,21.52
2022-08-05T16:25:18.264Z,21.42
2022-08-05T16:28:00.642Z,21.33
2022-08-05T16:30:32.381Z,21.41
2022-08-05T16:33:00.979Z,21.30
2022-08-05T16:35:32.286Z,21.27
2022-08-05T16:38:15.391Z,21.46
2022-08-05T16:40:55.063Z,21.53
2022-08-05T16:43:23.756Z,21.51
2022-08-05T16:46:05.233Z,21.52
2022-08-05T16:48:35.267Z,21.14
2022-08-05T16:51:03.876Z,21.32
2022-08-05T16:54:05.155Z,21.47
2022-08-05T16:56:24.636Z,21.45
2022-08-05T16:58:51.323Z,21.85
2022-08-05T17:01:18.841Z,21.58
2022-08-05T17:03:45.746Z,21.68
2022-08-05T17:06:12.627Z,21.69
2022-08-05T17:08:52.703Z,21.70
2022-08-05T17:11:25.754Z,21.40
2022-08-05T17:14:00.647Z,21.25
2022-08-05T17:16:36.178Z,21.40
2022-08-05T17:19:07.480Z,21.51
2022-08-05T17:21:36.243Z,21.43
2022-08-05T17:24:27.943Z,21.50
2022-08-05T17:26:56.455Z,21.54
2022-08-05T17:29:33.288Z,21.26
2022-08-05T17:32:06.705Z,21.19
2022-08-05T17:34:35.062Z,21.35
2022-08-05T17:37:01.695Z,21.42
2022-08-05T17:39:33.395Z,21.49
2022-08-05T17:42:20.051Z,21.33
2022-08-05T17:44:50.485Z,21.47
2022-08-05T17:47:22.074Z,21.28
2022-08-05T17:49:56.768Z,21.36
2022-08-05T17:52:30.250Z,21.38
2022-08-05T17:54:56.731Z,21.21
2022-08-05T17:57:23.131Z,21.45
2022-08-05T18:00:05.002Z,21.42
2022-08-05T18:02:33.333Z,21.32
2022-08-05T18:05:06.455Z,21.34
2022-08-05T18:07:41.495Z,21.23
2022-08-05T18:10:11.018Z,21.16
2022-08-05T18:12:37.930Z,21.34
2022-08-05T18:15:05.792Z,21.27
2022-08-05T18:18:00.239Z,21.21
2022-08-05T18:20:20.649Z,21.11
2022-08-05T18:22:57.277Z,21.04
2022-08-05T18:25:25.188Z,20.89
2022-08-05T18:27:59.533Z,21.00
2022-08-05T18:30:29.189Z,21.02
2022-08-05T18:33:00.366Z,20.80
2022-08-05T18:36:01.086Z,20.63
2022-08-05T18:38:19.050Z,20.68
2022-08-05T18:41:54.170Z,20.52
2022-08-05T18:43:43.064Z,20.41
2022-08-05T18:46:15.056Z,20.53
2022-08-05T18:48:42.157Z,20.56
2022-08-05T18:52:05.294Z,20.51
2022-08-05T18:54:14.815Z,20.35
2022-08-05T18:56:41.765Z,20.28
2022-08-05T18:59:44.081Z,20.22
2022-08-05T19:02:04.785Z,20.12
2022-08-05T19:05:01.612Z,19.99
2022-08-05T19:07:25.635Z,20.10
2022-08-05T19:09:56.855Z,20.00
2022-08-05T19:12:23.869Z,20.02
2022-08-05T19:14:59.872Z,20.06
2022-08-05T19:17:33.754Z,20.08
2022-08-05T19:20:15.112Z,20.02
2022-08-05T19:22:42.901Z,19.92
2022-08-05T19:25:10.268Z,19.84
2022-08-05T19:27:48.186Z,19.83
2022-08-05T19:30:17.029Z,19.82
2022-08-05T19:32:47.156Z,19.81
2022-08-05T19:35:14.354Z,19.70
2022-08-05T19:38:04.208Z,19.69
2022-08-05T19:40:28.705Z,19.61
2022-08-05T19:43:05.068Z,19.69
2022-08-05T19:45:36.410Z,19.57
2022-08-05T19:48:04.113Z,19.56
2022-08-05T19:50:31.933Z,19.44
2022-08-05T19:52:58.538Z,19.29
2022-08-05T19:56:14.766Z,19.30
2022-08-05T19:58:28.853Z,19.35
2022-08-05T20:00:56.497Z,19.50
2022-08-05T20:03:25.370Z,19.45
2022-08-05T20:05:56.838Z,19.23
2022-08-05T20:08:24.834Z,19.09
2022-08-05T20:10:51.720Z,18.99
2022-08-05T20:13:30.308Z,18.84
2022-08-05T20:16:05.603Z,18.50
2022-08-05T20:18:33.606Z,18.36
2022-08-05T20:21:04.487Z,18.08
2022-08-05T20:23:40.687Z,18.05
2022-08-05T20:26:24.663Z,17.69
2022-08-05T20:28:55.834Z,17.41
2022-08-05T20:31:28.769Z,17.33
2022-08-05T20:34:03.595Z,17.22
2022-08-05T20:36:30.817Z,17.09
2022-08-05T20:38:59.223Z,16.93
2022-08-05T20:41:43.490Z,16.90
2022-08-05T20:44:17.804Z,16.92
2022-08-05T20:46:56.828Z,16.73
2022-08-05T20:49:24.339Z,16.71
2022-08-05T20:51:54.222Z,16.69
2022-08-05T20:54:21.255Z,16.47
2022-08-05T20:56:47.681Z,16.37
2022-08-05T20:59:26.557Z,16.34
2022-08-05T21:01:56.481Z,16.35
2022-08-05T21:04:26.867Z,16.22
2022-08-05T21:06:54.070Z,16.16
2022-08-05T21:09:20.518Z,16.02
2022-08-05T21:12:06.603Z,15.88
2022-08-05T21:14:35.011Z,15.90
2022-08-05T21:17:03.123Z,15.91
2022-08-05T21:19:46.631Z,15.89
2022-08-05T21:22:14.226Z,15.80
2022-08-05T21:24:40.952Z,15.79
2022-08-05T21:27:09.058Z,15.82
2022-08-05T21:29:40.707Z,15.81
2022-08-05T21:32:07.538Z,15.79
2022-08-05T21:34:35.648Z,15.80
2022-08-05T21:37:02.409Z,15.81
2022-08-05T21:39:29.143Z,15.81
2022-08-05T21:42:01.011Z,15.59
2022-08-05T21:44:28.452Z,15.53
2022-08-05T21:46:57.906Z,15.57
2022-08-05T21:50:00.301Z,15.63
2022-08-05T21:52:21.597Z,15.64
2022-08-05T21:54:51.281Z,15.76
2022-08-05T21:57:31.649Z,15.90
2022-08-05T22:00:05.526Z,15.83
2022-08-05T22:02:33.284Z,16.06
2022-08-05T22:05:00.118Z,15.84
2022-08-05T22:07:39.977Z,15.93
2022-08-05T22:10:14.817Z,15.77
2022-08-05T22:12:45.071Z,15.84
2022-08-05T22:16:02.728Z,15.86
2022-08-05T22:18:04.858Z,16.03
2022-08-05T22:20:31.489Z,16.24
2022-08-05T22:23:21.292Z,16.37
2022-08-05T22:26:09.767Z,16.45
2022-08-05T22:28:37.943Z,16.37
2022-08-05T22:31:05.957Z,16.15
2022-08-05T22:33:57.518Z,16.14
2022-08-05T22:36:19.379Z,16.00
2022-08-05T22:38:51.539Z,16.10
2022-08-05T22:42:04.399Z,15.96
2022-08-05T22:44:08.630Z,15.79
2022-08-05T22:46:40.011Z,15.73
2022-08-05T22:49:23.203Z,15.80
2022-08-05T22:52:05.587Z,15.82
2022-08-05T22:54:34.903Z,15.81
2022-08-05T22:57:01.404Z,15.91
2022-08-05T22:59:48.365Z,16.00
2022-08-05T23:02:17.657Z,15.99
2022-08-05T23:04:51.655Z,15.95
2022-08-05T23:07:19.240Z,15.72
2022-08-05T23:09:57.404Z,15.47
2022-08-05T23:12:28.922Z,15.32
2022-08-05T23:14:58.922Z,15.29
2022-08-05T23:17:32.818Z,15.50
2022-08-05T23:20:16.303Z,15.45
2022-08-05T23:22:43.726Z,15.47
2022-08-05T23:25:17.706Z,15.40
2022-08-05T23:28:02.224Z,15.36
2022-08-05T23:30:31.337Z,15.31
2022-08-05T23:32:58.945Z,15.34
2022-08-05T23:35:28.663Z,15.09
2022-08-05T23:38:01.048Z,14.99
2022-08-05T23:40:27.693Z,14.89
2022-08-05T23:42:54.161Z,14.94
2022-08-05T23:45:20.949Z,14.97
2022-08-05T23:47:50.333Z,14.94
2022-08-05T23:50:20.643Z,15.03
2022-08-05T23:52:49.807Z,15.10
2022-08-05T23:55:18.957Z,15.00
2022-08-05T23:57:48.882Z,14.98
